createdAt,value
2017-09-28T00:01:09.138Z,64.10
2017-09-28T00:03:38.209Z,65.10
2017-09-28T00:06:06.517Z,62.37
2017-09-28T00:08:35.593Z,60.20
2017-09-28T00:11:03.893Z,64.60
2017-09-28T00:13:32.302Z,68.97
2017-09-28T00:16:00.640Z,66.33
2017-09-28T00:18:29.716Z,65.30
2017-09-28T00:20:58.056Z,76.97
2017-09-28T00:23:26.369Z,68.03
2017-09-28T00:25:54.709Z,68.60
2017-09-28T00:28:23.012Z,65.07
2017-09-28T00:30:51.363Z,70.27
2017-09-28T00:33:19.672Z,61.83
2017-09-28T00:35:48.753Z,64.57
2017-09-28T00:38:17.068Z,55.40
2017-09-28T00:40:45.377Z,66.53
2017-09-28T00:43:13.769Z,66.67
2017-09-28T00:45:42.097Z,58.07
2017-09-28T00:48:11.192Z,56.07
2017-09-28T00:50:39.519Z,57.70
2017-09-28T00:53:07.834Z,57.60
2017-09-28T00:55:36.141Z,56.57
2017-09-28T00:58:05.221Z,61.07
2017-09-28T01:00:33.525Z,64.40
2017-09-28T01:03:02.614Z,65.17
2017-09-28T01:05:30.930Z,61.93
2017-09-28T01:07:59.225Z,65.20
2017-09-28T01:10:27.533Z,66.90
2017-09-28T01:12:56.614Z,65.70
2017-09-28T01:15:24.951Z,70.93
2017-09-28T01:17:53.265Z,73.60
2017-09-28T01:20:21.573Z,69.50
2017-09-28T01:22:50.653Z,77.20
2017-09-28T01:25:18.962Z,71.87
2017-09-28T01:27:47.293Z,71.40
2017-09-28T01:30:15.602Z,67.27
2017-09-28T01:32:44.674Z,70.23
2017-09-28T01:35:12.991Z,67.63
2017-09-28T01:37:41.302Z,61.30
2017-09-28T01:40:09.632Z,56.20
2017-09-28T01:42:38.697Z,58.70
2017-09-28T01:45:07.010Z,68.03
2017-09-28T01:47:35.317Z,64.30
2017-09-28T01:50:03.626Z,65.30
2017-09-28T01:52:31.965Z,62.20
2017-09-28T01:55:00.268Z,60.33
2017-09-28T01:57:28.584Z,62.70
2017-09-28T01:59:57.663Z,62.40
2017-09-28T02:02:26.750Z,59.47
2017-09-28T02:04:55.105Z,60.67
2017-09-28T02:07:23.410Z,60.57
2017-09-28T02:09:51.733Z,66.23
2017-09-28T02:12:20.050Z,66.57
2017-09-28T02:14:48.353Z,64.00
2017-09-28T02:17:17.448Z,64.10
2017-09-28T02:19:46.516Z,61.27
2017-09-28T02:22:14.822Z,63.40
2017-09-28T02:24:43.893Z,64.80
2017-09-28T02:27:12.193Z,63.90
2017-09-28T02:29:41.305Z,62.00
2017-09-28T02:32:09.627Z,59.33
2017-09-28T02:34:37.957Z,61.70
2017-09-28T02:37:07.039Z,58.47
2017-09-28T02:39:36.115Z,56.57
2017-09-28T02:42:04.440Z,58.73
2017-09-28T02:44:32.759Z,56.33
2017-09-28T02:47:01.834Z,62.20
2017-09-28T02:49:30.159Z,62.50
2017-09-28T02:51:59.241Z,60.40
2017-09-28T02:54:27.601Z,67.47
2017-09-28T02:56:55.922Z,67.20
2017-09-28T02:59:25.001Z,63.07
2017-09-28T03:01:53.329Z,65.10
2017-09-28T03:04:21.629Z,58.20
2017-09-28T03:06:49.951Z,58.00
2017-09-28T03:09:18.265Z,58.80
2017-09-28T03:11:46.578Z,64.93
2017-09-28T03:14:14.902Z,61.00
2017-09-28T03:16:43.200Z,58.27
2017-09-28T03:19:11.533Z,56.17
2017-09-28T03:21:40.613Z,48.23
2017-09-28T03:24:08.922Z,47.30
2017-09-28T03:26:37.267Z,48.37
2017-09-28T03:29:05.580Z,49.50
2017-09-28T03:31:33.926Z,45.00
2017-09-28T03:34:02.244Z,50.70
2017-09-28T03:36:30.559Z,52.27
2017-09-28T03:38:58.893Z,54.93
2017-09-28T03:41:27.204Z,53.47
2017-09-28T03:43:55.546Z,50.17
2017-09-28T03:46:23.850Z,50.93
2017-09-28T03:48:52.193Z,51.40
2017-09-28T03:51:20.523Z,54.40
2017-09-28T03:53:48.847Z,53.10
2017-09-28T03:56:17.244Z,51.93
2017-09-28T03:58:45.568Z,54.17
2017-09-28T04:01:13.892Z,57.90
2017-09-28T04:03:42.230Z,56.60
2017-09-28T04:06:10.545Z,56.90
2017-09-28T04:08:38.902Z,56.90
2017-09-28T04:11:07.980Z,57.60
2017-09-28T04:13:36.295Z,63.57
2017-09-28T04:16:04.627Z,63.53
2017-09-28T04:18:32.942Z,58.93
2017-09-28T04:21:01.287Z,54.00
2017-09-28T04:23:29.599Z,58.57
2017-09-28T04:25:57.919Z,52.60
2017-09-28T04:28:26.230Z,54.33
2017-09-28T04:30:54.552Z,59.90
2017-09-28T04:33:22.923Z,55.07
2017-09-28T04:35:51.291Z,51.83
2017-09-28T04:38:19.648Z,51.40
2017-09-28T04:40:48.812Z,55.57
2017-09-28T04:43:17.192Z,53.60
2017-09-28T04:45:45.538Z,54.37
2017-09-28T04:48:13.857Z,61.20
2017-09-28T04:50:42.171Z,61.67
2017-09-28T04:53:10.511Z,57.63
2017-09-28T04:55:38.821Z,69.00
2017-09-28T04:58:07.184Z,60.33
2017-09-28T05:00:36.257Z,61.90
2017-09-28T05:03:04.574Z,58.40
2017-09-28T05:05:33.663Z,60.93
2017-09-28T05:08:02.749Z,62.13
2017-09-28T05:10:31.082Z,67.10
2017-09-28T05:12:59.837Z,69.60
2017-09-28T05:15:28.146Z,69.27
2017-09-28T05:17:56.466Z,66.10
2017-09-28T05:20:24.799Z,72.60
2017-09-28T05:22:53.138Z,70.07
2017-09-28T05:25:22.212Z,73.47
2017-09-28T05:27:50.522Z,72.17
2017-09-28T05:30:18.851Z,73.90
2017-09-28T05:32:47.159Z,71.67
2017-09-28T05:35:16.258Z,75.60
2017-09-28T05:37:45.335Z,66.20
2017-09-28T05:40:13.683Z,68.70
2017-09-28T05:42:41.993Z,70.37
2017-09-28T05:45:10.318Z,70.53
2017-09-28T05:47:38.641Z,78.10
2017-09-28T05:50:06.954Z,72.37
2017-09-28T05:52:35.274Z,77.53
2017-09-28T05:55:03.586Z,72.60
2017-09-28T05:57:32.693Z,70.50
2017-09-28T06:00:01.780Z,69.90
2017-09-28T06:02:30.865Z,75.90
2017-09-28T06:04:59.190Z,81.00
2017-09-28T06:07:27.499Z,78.70
2017-09-28T06:09:55.839Z,79.20
2017-09-28T06:12:24.154Z,78.93
2017-09-28T06:14:52.473Z,80.27
2017-09-28T06:17:21.554Z,81.27
2017-09-28T06:19:50.669Z,80.30
2017-09-28T06:22:18.978Z,78.30
2017-09-28T06:24:47.297Z,70.30
2017-09-28T06:27:15.621Z,75.27
2017-09-28T06:29:43.927Z,78.53
2017-09-28T06:32:12.241Z,73.93
2017-09-28T06:34:41.323Z,88.60
2017-09-28T06:37:10.459Z,75.13
2017-09-28T06:39:38.783Z,71.47
2017-09-28T06:42:07.131Z,80.07
2017-09-28T06:44:35.445Z,75.50
2017-09-28T06:47:03.753Z,81.37
2017-09-28T06:49:32.838Z,74.10
2017-09-28T06:52:01.912Z,73.07
2017-09-28T06:54:30.235Z,76.40
2017-09-28T06:56:58.546Z,76.83
2017-09-28T06:59:26.864Z,73.53
2017-09-28T07:01:55.933Z,72.57
2017-09-28T07:04:24.281Z,76.87
2017-09-28T07:06:52.602Z,74.07
2017-09-28T07:09:20.919Z,77.00
2017-09-28T07:11:49.259Z,67.77
2017-09-28T07:14:17.584Z,73.00
2017-09-28T07:16:45.915Z,72.53
2017-09-28T07:19:14.265Z,73.20
2017-09-28T07:21:42.584Z,74.10
2017-09-28T07:24:11.670Z,66.60
2017-09-28T07:26:40.788Z,68.80
2017-09-28T07:29:09.101Z,69.57
2017-09-28T07:31:37.413Z,66.80
2017-09-28T07:34:05.737Z,70.03
2017-09-28T07:36:34.063Z,71.63
2017-09-28T07:39:02.382Z,67.30
2017-09-28T07:41:30.697Z,69.30
2017-09-28T07:43:59.022Z,69.57
2017-09-28T07:46:28.106Z,66.20
2017-09-28T07:48:57.209Z,67.67
2017-09-28T07:51:26.286Z,62.27
2017-09-28T07:53:54.606Z,67.13
2017-09-28T07:56:22.933Z,68.50
2017-09-28T07:58:51.248Z,69.83
2017-09-28T08:01:19.583Z,69.23
2017-09-28T08:03:47.897Z,63.97
2017-09-28T08:06:17.002Z,64.07
2017-09-28T08:08:45.342Z,64.37
2017-09-28T08:11:13.653Z,69.50
2017-09-28T08:13:41.969Z,71.27
2017-09-28T08:16:10.278Z,66.83
2017-09-28T08:18:38.605Z,65.80
2017-09-28T08:21:06.921Z,70.20
2017-09-28T08:23:35.266Z,67.60
2017-09-28T08:26:03.576Z,69.60
2017-09-28T08:28:31.896Z,69.53
2017-09-28T08:31:00.231Z,69.80
2017-09-28T08:33:28.549Z,64.30
2017-09-28T08:35:56.874Z,67.87
2017-09-28T08:38:25.190Z,67.27
2017-09-28T08:40:54.309Z,67.67
2017-09-28T08:43:22.617Z,70.37
2017-09-28T08:45:50.941Z,69.83
2017-09-28T08:48:20.040Z,72.30
2017-09-28T08:50:49.122Z,69.50
2017-09-28T08:53:17.449Z,73.00
2017-09-28T08:55:45.753Z,66.67
2017-09-28T08:58:14.098Z,68.27
2017-09-28T09:00:42.408Z,68.50
2017-09-28T09:03:10.729Z,74.13
2017-09-28T09:05:39.050Z,69.47
2017-09-28T09:08:07.362Z,74.43
2017-09-28T09:10:35.683Z,74.47
2017-09-28T09:13:03.999Z,73.73
2017-09-28T09:15:32.349Z,68.00
2017-09-28T09:18:00.667Z,65.30
2017-09-28T09:20:28.992Z,63.43
2017-09-28T09:22:57.331Z,65.30
2017-09-28T09:25:25.647Z,66.97
2017-09-28T09:27:53.974Z,64.13
2017-09-28T09:30:22.308Z,69.63
2017-09-28T09:32:50.663Z,70.33
2017-09-28T09:35:18.975Z,72.03
2017-09-28T09:37:47.285Z,68.23
2017-09-28T09:40:15.615Z,66.30
2017-09-28T09:42:43.925Z,68.57
2017-09-28T09:45:12.251Z,70.87
2017-09-28T09:47:40.579Z,73.90
2017-09-28T09:50:08.906Z,75.63
2017-09-28T09:52:37.230Z,71.63
2017-09-28T09:55:05.585Z,74.50
2017-09-28T09:57:33.897Z,77.70
2017-09-28T10:00:02.210Z,77.70
2017-09-28T10:02:30.546Z,74.80
2017-09-28T10:04:58.862Z,71.47
2017-09-28T10:07:45.278Z,70.40
2017-09-28T10:10:18.287Z,62.90
2017-09-28T10:12:52.309Z,62.20
2017-09-28T10:15:31.081Z,65.57
2017-09-28T10:18:00.171Z,66.63
2017-09-28T10:20:29.254Z,63.70
2017-09-28T10:22:57.603Z,73.53
2017-09-28T10:25:25.914Z,77.50
2017-09-28T10:27:54.217Z,73.27
2017-09-28T10:30:22.539Z,71.67
2017-09-28T10:32:50.849Z,71.67
2017-09-28T10:35:19.181Z,72.37
2017-09-28T10:37:47.495Z,68.57
2017-09-28T10:40:15.840Z,59.90
2017-09-28T10:42:44.171Z,67.93
2017-09-28T10:45:13.249Z,71.50
2017-09-28T10:47:41.569Z,67.70
2017-09-28T10:50:09.877Z,64.60
2017-09-28T10:52:38.194Z,65.80
2017-09-28T10:55:07.265Z,60.30
2017-09-28T10:57:35.594Z,63.40
2017-09-28T11:00:03.902Z,63.77
2017-09-28T11:02:32.215Z,57.63
2017-09-28T11:05:01.299Z,59.87
2017-09-28T11:07:29.620Z,57.73
2017-09-28T11:09:57.949Z,60.40
2017-09-28T11:12:26.261Z,53.80
2017-09-28T11:14:54.599Z,53.57
2017-09-28T11:17:22.910Z,53.33
2017-09-28T11:19:51.985Z,54.10
2017-09-28T11:22:20.301Z,53.97
2017-09-28T11:24:48.611Z,52.30
2017-09-28T11:27:16.959Z,51.23
2017-09-28T11:29:45.267Z,51.60
2017-09-28T11:32:13.573Z,48.47
2017-09-28T11:34:41.898Z,49.87
2017-09-28T11:37:10.215Z,52.80
2017-09-28T11:39:38.554Z,47.00
2017-09-28T11:42:06.866Z,47.77
2017-09-28T11:44:35.174Z,43.43
2017-09-28T11:47:04.275Z,43.80
2017-09-28T11:49:33.349Z,43.10
2017-09-28T11:52:01.701Z,42.97
2017-09-28T11:54:30.007Z,41.73
2017-09-28T11:56:59.090Z,43.30
2017-09-28T11:59:27.407Z,41.67
2017-09-28T12:01:55.717Z,41.80
2017-09-28T12:04:24.063Z,45.67
2017-09-28T12:06:52.378Z,44.60
2017-09-28T12:09:20.678Z,47.17
2017-09-28T12:11:49.007Z,42.20
2017-09-28T12:14:17.322Z,49.83
2017-09-28T12:16:45.663Z,46.20
2017-09-28T12:19:13.971Z,45.40
2017-09-28T12:21:42.290Z,47.17
2017-09-28T12:24:11.383Z,41.87
2017-09-28T12:26:40.459Z,45.20
2017-09-28T12:29:08.890Z,42.50
2017-09-28T12:31:37.199Z,39.03
2017-09-28T12:34:05.501Z,41.83
2017-09-28T12:36:33.824Z,39.07
2017-09-28T12:39:02.223Z,42.80
2017-09-28T12:41:30.545Z,44.33
2017-09-28T12:43:59.615Z,40.93
2017-09-28T12:46:27.972Z,40.20
2017-09-28T12:48:56.282Z,40.00
2017-09-28T12:51:24.595Z,37.63
2017-09-28T12:53:52.923Z,39.40
2017-09-28T12:56:21.249Z,37.63
2017-09-28T12:58:49.572Z,35.50
2017-09-28T13:01:17.873Z,40.13
2017-09-28T13:03:46.213Z,38.40
2017-09-28T13:06:14.529Z,40.30
2017-09-28T13:08:43.622Z,42.87
2017-09-28T13:11:12.716Z,42.43
2017-09-28T13:13:41.027Z,43.77
2017-09-28T13:16:09.370Z,44.13
2017-09-28T13:18:37.677Z,43.03
2017-09-28T13:21:06.002Z,45.77
2017-09-28T13:23:34.322Z,46.10
2017-09-28T13:26:03.396Z,46.00
2017-09-28T13:28:31.720Z,48.43
2017-09-28T13:31:00.028Z,42.63
2017-09-28T13:33:28.368Z,47.47
2017-09-28T13:35:56.676Z,46.13
2017-09-28T13:38:24.982Z,42.30
2017-09-28T13:40:53.303Z,44.70
2017-09-28T13:43:21.623Z,45.80
2017-09-28T13:45:49.942Z,47.77
2017-09-28T13:48:19.010Z,43.07
2017-09-28T13:50:47.356Z,43.80
2017-09-28T13:53:15.661Z,43.93
2017-09-28T13:55:43.981Z,43.40
2017-09-28T13:58:12.301Z,44.63
2017-09-28T14:00:40.621Z,47.07
2017-09-28T14:03:09.717Z,45.73
2017-09-28T14:05:38.793Z,43.80
2017-09-28T14:08:07.127Z,43.00
2017-09-28T14:10:35.466Z,44.87
2017-09-28T14:13:03.783Z,43.90
2017-09-28T14:15:32.110Z,48.80
2017-09-28T14:18:01.190Z,44.33
2017-09-28T14:20:29.515Z,43.00
2017-09-28T14:22:57.862Z,44.67
2017-09-28T14:25:26.969Z,45.20
2017-09-28T14:27:56.041Z,44.87
2017-09-28T14:30:24.374Z,41.30
2017-09-28T14:32:52.746Z,40.87
2017-09-28T14:35:21.051Z,49.73
2017-09-28T14:37:49.370Z,46.57
2017-09-28T14:40:18.450Z,44.63
2017-09-28T14:42:46.786Z,46.17
2017-09-28T14:45:15.094Z,48.83
2017-09-28T14:47:43.419Z,48.47
2017-09-28T14:50:11.737Z,49.43
2017-09-28T14:52:40.048Z,46.93
2017-09-28T14:55:09.129Z,50.27
2017-09-28T14:57:37.442Z,51.37
2017-09-28T15:00:05.786Z,51.80
2017-09-28T15:02:34.101Z,52.90
2017-09-28T15:05:02.406Z,54.37
2017-09-28T15:07:30.729Z,52.50
2017-09-28T15:09:59.815Z,55.83
2017-09-28T15:12:28.155Z,55.37
2017-09-28T15:14:56.478Z,53.10
2017-09-28T15:17:25.589Z,51.10
2017-09-28T15:19:53.894Z,56.93
2017-09-28T15:22:22.208Z,56.80
2017-09-28T15:24:50.533Z,57.63
2017-09-28T15:27:18.865Z,57.83
2017-09-28T15:29:47.201Z,55.07
2017-09-28T15:32:15.509Z,58.13
2017-09-28T15:34:43.819Z,56.80
2017-09-28T15:37:12.931Z,60.63
2017-09-28T15:39:41.239Z,57.87
2017-09-28T15:42:09.586Z,54.97
2017-09-28T15:44:37.888Z,56.50
2017-09-28T15:47:06.802Z,56.00
2017-09-28T15:49:35.126Z,53.00
2017-09-28T15:52:03.433Z,54.07
2017-09-28T15:54:31.774Z,55.10
2017-09-28T15:57:00.858Z,55.80
2017-09-28T15:59:29.937Z,55.20
2017-09-28T16:01:58.256Z,52.47
2017-09-28T16:04:26.589Z,57.00
2017-09-28T16:06:54.929Z,56.27
2017-09-28T16:09:23.246Z,48.70
2017-09-28T16:11:51.557Z,51.07
2017-09-28T16:14:20.657Z,51.23
2017-09-28T16:16:48.963Z,52.77
2017-09-28T16:19:17.306Z,51.40
2017-09-28T16:21:46.382Z,51.87
2017-09-28T16:24:14.703Z,52.10
2017-09-28T16:26:43.040Z,53.13
2017-09-28T16:29:12.114Z,54.73
2017-09-28T16:31:40.457Z,54.60
2017-09-28T16:34:08.771Z,53.43
2017-09-28T16:36:37.086Z,51.37
2017-09-28T16:39:05.426Z,55.80
2017-09-28T16:41:33.738Z,52.77
2017-09-28T16:44:02.860Z,54.47
2017-09-28T16:46:31.174Z,49.93
2017-09-28T16:48:59.489Z,52.83
2017-09-28T16:51:28.596Z,50.53
2017-09-28T16:53:56.902Z,54.50
2017-09-28T16:56:25.238Z,49.60
2017-09-28T16:58:54.322Z,49.10
2017-09-28T17:01:23.403Z,52.70
2017-09-28T17:03:51.723Z,53.63
2017-09-28T17:06:20.031Z,59.57
2017-09-28T17:08:48.377Z,53.63
2017-09-28T17:13:51.358Z,49.90
2017-09-28T17:16:20.436Z,58.63
2017-09-28T17:18:48.739Z,56.13
2017-09-28T17:21:17.075Z,49.67
2017-09-28T17:23:45.390Z,45.67
2017-09-28T17:26:14.497Z,46.17
2017-09-28T17:28:42.801Z,48.47
2017-09-28T17:31:11.113Z,47.27
2017-09-28T17:33:39.432Z,49.00
2017-09-28T17:36:07.741Z,56.97
2017-09-28T17:38:36.086Z,51.90
2017-09-28T17:41:04.478Z,57.17
2017-09-28T17:43:32.791Z,49.73
2017-09-28T17:46:01.106Z,48.50
2017-09-28T17:48:30.178Z,52.10
2017-09-28T17:50:58.514Z,49.60
2017-09-28T17:53:26.824Z,50.77
2017-09-28T17:55:55.139Z,54.17
2017-09-28T17:58:23.454Z,52.93
2017-09-28T18:00:51.774Z,51.20
2017-09-28T18:03:20.910Z,53.60
2017-09-28T18:05:49.226Z,52.07
2017-09-28T18:08:17.542Z,53.00
2017-09-28T18:10:46.634Z,48.90
2017-09-28T18:13:15.718Z,51.27
2017-09-28T18:15:44.834Z,55.03
2017-09-28T18:18:13.159Z,51.63
2017-09-28T18:20:42.286Z,52.83
2017-09-28T18:23:11.377Z,49.83
2017-09-28T18:25:39.690Z,59.93
2017-09-28T18:28:08.044Z,55.73
2017-09-28T18:30:37.130Z,58.93
2017-09-28T18:33:06.211Z,56.30
2017-09-28T18:35:34.546Z,56.37
2017-09-28T18:38:02.862Z,56.83
2017-09-28T18:40:31.207Z,56.07
2017-09-28T18:42:59.521Z,57.47
2017-09-28T18:45:27.874Z,53.60
2017-09-28T18:47:57.698Z,56.83
2017-09-28T18:50:26.014Z,57.97
2017-09-28T18:52:55.426Z,60.00
2017-09-28T18:55:24.501Z,55.70
2017-09-28T18:57:52.810Z,62.93
2017-09-28T19:00:21.155Z,67.60
2017-09-28T19:02:49.474Z,71.20
2017-09-28T19:05:17.821Z,74.47
2017-09-28T19:07:46.902Z,74.30
2017-09-28T19:10:15.222Z,70.83
2017-09-28T19:12:43.554Z,68.20
2017-09-28T19:15:11.874Z,64.80
2017-09-28T19:17:40.218Z,74.23
2017-09-28T19:20:09.307Z,66.23
2017-09-28T19:22:37.656Z,64.93
2017-09-28T19:25:05.970Z,66.87
2017-09-28T19:27:35.057Z,60.70
2017-09-28T19:30:03.414Z,63.50
2017-09-28T19:32:31.745Z,64.00
2017-09-28T19:35:00.092Z,61.90
2017-09-28T19:37:28.473Z,64.47
2017-09-28T19:39:56.786Z,64.33
2017-09-28T19:42:25.134Z,61.77
2017-09-28T19:44:54.257Z,64.13
2017-09-28T19:47:22.570Z,65.80
2017-09-28T19:49:50.885Z,61.67
2017-09-28T19:52:19.978Z,64.50
2017-09-28T19:54:48.320Z,66.53
2017-09-28T19:57:16.639Z,59.30
2017-09-28T19:59:45.720Z,61.30
2017-09-28T20:02:14.045Z,64.57
2017-09-28T20:04:42.363Z,58.73
2017-09-28T20:07:10.710Z,62.00
2017-09-28T20:09:39.026Z,61.70
2017-09-28T20:12:07.337Z,59.30
2017-09-28T20:14:35.663Z,57.13
2017-09-28T20:17:03.979Z,60.50
2017-09-28T20:19:33.094Z,60.10
2017-09-28T20:22:01.405Z,58.23
2017-09-28T20:24:29.722Z,66.60
2017-09-28T20:26:58.838Z,62.37
2017-09-28T20:29:27.155Z,61.50
2017-09-28T20:31:55.507Z,59.27
2017-09-28T20:34:23.822Z,64.30
2017-09-28T20:36:52.155Z,58.10
2017-09-28T20:39:20.487Z,60.83
2017-09-28T20:41:48.796Z,53.67
2017-09-28T20:44:17.895Z,58.07
2017-09-28T20:46:46.213Z,53.00
2017-09-28T20:49:14.545Z,56.57
2017-09-28T20:51:42.875Z,60.20
2017-09-28T20:54:11.177Z,59.00
2017-09-28T20:56:39.543Z,60.23
2017-09-28T20:59:07.849Z,57.63
2017-09-28T21:01:36.936Z,58.17
2017-09-28T21:04:05.259Z,56.40
2017-09-28T21:06:33.570Z,55.70
2017-09-28T21:09:01.926Z,61.00
2017-09-28T21:11:30.246Z,61.93
2017-09-28T21:13:58.554Z,56.43
2017-09-28T21:16:26.877Z,58.70
2017-09-28T21:18:55.183Z,65.10
2017-09-28T21:21:24.298Z,56.67
2017-09-28T21:23:52.606Z,57.80
2017-09-28T21:26:20.913Z,58.73
2017-09-28T21:28:49.234Z,56.73
2017-09-28T21:31:17.571Z,57.63
2017-09-28T21:33:45.916Z,61.80
2017-09-28T21:36:14.266Z,56.87
2017-09-28T21:38:42.569Z,58.60
2017-09-28T21:41:10.893Z,63.57
2017-09-28T21:43:39.209Z,55.90
2017-09-28T21:46:07.565Z,60.37
2017-09-28T21:48:36.643Z,59.27
2017-09-28T21:51:04.955Z,63.00
2017-09-28T21:53:33.281Z,58.40
2017-09-28T21:56:01.594Z,60.10
2017-09-28T21:58:30.710Z,57.43
2017-09-28T22:00:59.013Z,54.07
2017-09-28T22:03:27.342Z,65.50
2017-09-28T22:05:56.427Z,62.83
2017-09-28T22:08:25.556Z,65.77
2017-09-28T22:10:53.904Z,58.80
2017-09-28T22:13:22.987Z,57.83
2017-09-28T22:15:51.302Z,56.57
2017-09-28T22:18:19.637Z,59.60
2017-09-28T22:20:48.011Z,58.70
2017-09-28T22:23:16.374Z,65.00
2017-09-28T22:25:44.699Z,60.23
2017-09-28T22:28:13.789Z,57.60
2017-09-28T22:30:42.903Z,54.37
2017-09-28T22:33:11.209Z,59.27
2017-09-28T22:35:39.529Z,60.23
2017-09-28T22:38:08.633Z,55.80
2017-09-28T22:40:37.715Z,56.77
2017-09-28T22:43:06.815Z,57.67
2017-09-28T22:45:35.918Z,57.20
2017-09-28T22:48:05.037Z,61.00
2017-09-28T22:50:33.351Z,56.80
2017-09-28T22:53:01.671Z,56.30
2017-09-28T22:55:30.753Z,57.97
2017-09-28T22:57:59.838Z,57.53
2017-09-28T23:00:28.201Z,56.50
2017-09-28T23:02:56.513Z,57.27
2017-09-28T23:05:24.852Z,56.70
2017-09-28T23:07:53.942Z,57.57
2017-09-28T23:10:22.273Z,53.70
2017-09-28T23:12:51.398Z,53.63
2017-09-28T23:15:19.707Z,54.80
2017-09-28T23:17:48.026Z,51.80
2017-09-28T23:20:17.110Z,52.60
2017-09-28T23:22:46.212Z,54.47
2017-09-28T23:25:15.333Z,52.67
2017-09-28T23:27:43.721Z,53.03
2017-09-28T23:30:12.048Z,51.30
2017-09-28T23:32:40.365Z,52.40
2017-09-28T23:35:08.674Z,53.80
2017-09-28T23:37:37.020Z,47.53
2017-09-28T23:40:05.342Z,48.73
2017-09-28T23:42:33.650Z,49.67
2017-09-28T23:45:02.736Z,49.87
2017-09-28T23:47:31.045Z,47.57
2017-09-28T23:49:59.390Z,45.43
2017-09-28T23:52:27.703Z,47.60
2017-09-28T23:54:56.018Z,48.63
2017-09-28T23:57:24.374Z,49.50
2017-09-28T23:59:52.697Z,48.67
